Arkadelphia, Alabama
Current Conditions -  °F | °C
As of 4:15 PM on Sunday 23 Nov 2014 (Local Time) from KJFX Reporting Station
Broken Clouds Broken Clouds  
Wind Chill: 64°   Ceiling: 3800
Heat Index: 64°   Visibility: 10mi
Dew Point: 63°   Wind: 8mph
Humidity: 94%   Direction: 170°S
Pressure: 29.52"   Gusts: NA
Location:  33.9511°N, 87.0046°W
Report Text: KJFX 232215Z AUTO 17007KT 10SM SCT020 BKN038 18/17 A2952 RMK A02 P-128
Loading
Personal Weather Stations






























Interactive Weather Map New forecast layout! Learn more

10-Day Weather Forecast

Advertisements
Track Severe Weather on mobile